Quinwood, West Virginia
Current Conditions -  °F | °C
As of 1:55 AM on Friday 28 Nov 2014 (Local Time) from KLWB Reporting Station
Light Snow Light Snow  
Wind Chill: 22°   Ceiling: 2700
Heat Index: 28°   Visibility: 5mi
Dew Point: 21°   Wind: 6mph
Humidity: 77%   Direction: 300°WNW
Pressure: 30.21"   Gusts: NA
Location:  38.06°N, 80.71°W
Report Text: KLWB 280655Z AUTO 30005KT 5SM -SN SCT012 BKN027 OVC040 M02/M06 A3021 RMK AO2 T10231059
Loading
Personal Weather Stations






























Interactive Weather Map New forecast layout! Learn more

10-Day Weather Forecast

Advertisements
Track Severe Weather on mobile